Time;durP1;ratioP1;P1;durP2;ratioP2;P2;SDS_P1;SDS_P2;PMS_P1;PMS_P2;Temp;Humidity;BMP_temperature;BMP_pressure;BME280_temperature;BME280_humidity;BME280_pressure;Samples;Min_cycle;Max_cycle;Signal;HPM_P1;HPM_P2
2023/01/27 00:00:53;;;;;;;0.60;0.60;;;3.90;99.90;;;;;;5035209;28;20049;-87
2023/01/27 00:03:19;;;;;;;0.85;0.82;;;3.90;99.90;;;;;;5036238;28;20049;-87
2023/01/27 00:05:45;;;;;;;0.63;0.63;;;4.00;99.90;;;;;;5037558;28;20545;-87
2023/01/27 00:08:11;;;;;;;0.28;0.28;;;3.90;99.90;;;;;;5037569;28;20052;-87
2023/01/27 00:10:36;;;;;;;1.63;0.55;;;3.90;99.90;;;;;;5036300;28;20136;-87
2023/01/27 00:15:47;;;;;;;0.68;0.68;;;3.90;99.90;;;;;;5037654;28;20049;-87
2023/01/27 00:18:13;;;;;;;0.85;0.85;;;3.90;99.90;;;;;;5037225;28;20049;-87
2023/01/27 00:26:14;;;;;;;5.15;0.88;;;3.80;99.90;;;;;;5036491;28;20064;-87
2023/01/27 00:28:41;;;;;;;0.40;0.38;;;3.80;99.90;;;;;;5037423;28;20045;-87
2023/01/27 00:33:55;;;;;;;0.35;0.35;;;3.80;99.90;;;;;;5035444;28;20477;-87
2023/01/27 00:36:21;;;;;;;0.70;0.70;;;3.80;99.90;;;;;;5037081;28;20049;-87
2023/01/27 00:38:47;;;;;;;0.35;0.35;;;3.70;99.90;;;;;;5035852;28;20045;-87
2023/01/27 00:41:18;;;;;;;1.35;1.25;;;3.70;99.90;;;;;;5036022;28;20056;-87
2023/01/27 00:43:52;;;;;;;0.10;0.10;;;3.70;99.90;;;;;;5038196;28;20479;-87
2023/01/27 00:46:19;;;;;;;0.52;0.52;;;3.70;99.90;;;;;;5037567;28;20049;-87
2023/01/27 00:48:45;;;;;;;0.28;0.28;;;3.70;99.90;;;;;;5038580;28;20124;-87
2023/01/27 00:51:12;;;;;;;0.52;0.50;;;3.70;99.90;;;;;;5038250;28;20069;-87
2023/01/27 00:53:37;;;;;;;0.20;0.20;;;3.70;99.90;;;;;;5037982;28;20056;-87
2023/01/27 00:56:04;;;;;;;0.15;0.15;;;3.80;99.90;;;;;;5038182;28;20419;-87
2023/01/27 00:58:29;;;;;;;0.00;0.00;;;3.80;99.90;;;;;;5037938;28;20092;-87
2023/01/27 01:01:02;;;;;;;0.40;0.40;;;3.80;99.90;;;;;;5038581;28;20438;-87
2023/01/27 01:03:32;;;;;;;2.72;1.45;;;3.80;99.90;;;;;;5037921;28;20037;-87
2023/01/27 01:06:06;;;;;;;0.20;0.20;;;3.80;99.90;;;;;;5037796;28;20149;-87
2023/01/27 01:08:33;;;;;;;0.32;0.32;;;3.90;99.90;;;;;;5035425;28;20046;-87
2023/01/27 01:10:59;;;;;;;0.73;0.70;;;3.80;99.90;;;;;;5036369;28;20064;-87
2023/01/27 01:13:27;;;;;;;0.88;0.88;;;3.80;99.90;;;;;;5036381;28;20045;-87
2023/01/27 01:15:53;;;;;;;0.03;0.03;;;3.80;99.90;;;;;;5036692;28;20171;-87
2023/01/27 01:18:19;;;;;;;1.13;1.02;;;3.80;99.90;;;;;;5036715;28;20045;-87
2023/01/27 01:20:46;;;;;;;0.20;0.20;;;3.80;99.90;;;;;;5035260;28;20406;-87
2023/01/27 01:23:13;;;;;;;0.10;0.10;;;3.80;99.90;;;;;;5036242;28;20072;-87
2023/01/27 01:25:38;;;;;;;0.00;0.00;;;3.80;99.90;;;;;;5035392;28;20483;-87
2023/01/27 01:28:05;;;;;;;0.30;0.30;;;3.80;99.90;;;;;;5037378;28;20072;-87
2023/01/27 01:30:33;;;;;;;0.30;0.30;;;3.80;99.90;;;;;;5037638;28;20042;-87
2023/01/27 01:32:59;;;;;;;0.20;0.20;;;3.80;99.90;;;;;;5036889;28;20038;-86
2023/01/27 01:35:24;;;;;;;0.20;0.20;;;3.80;99.90;;;;;;5038003;28;20091;-87
2023/01/27 01:37:51;;;;;;;0.00;0.00;;;3.80;99.90;;;;;;5036949;28;20098;-87
2023/01/27 01:40:17;;;;;;;0.20;0.20;;;3.80;1.00;;;;;;5036702;28;20041;-87
2023/01/27 01:42:49;;;;;;;0.10;0.10;;;3.80;1.00;;;;;;5037359;28;20052;-87
2023/01/27 01:45:35;;;;;;;0.15;0.15;;;3.80;1.00;;;;;;5039880;28;20093;-87
2023/01/27 01:48:15;;;;;;;0.20;0.20;;;3.80;99.90;;;;;;5036163;28;20538;-87
2023/01/27 01:50:53;;;;;;;0.00;0.00;;;3.80;99.90;;;;;;5036771;28;20048;-87
2023/01/27 01:53:26;;;;;;;32.65;1.15;;;3.80;99.90;;;;;;5036198;28;20491;-87
2023/01/27 01:55:52;;;;;;;0.08;0.08;;;3.90;99.90;;;;;;5036992;28;20041;-87
2023/01/27 01:58:19;;;;;;;0.00;0.00;;;3.90;99.90;;;;;;5035242;28;20046;-87
2023/01/27 02:00:45;;;;;;;0.00;0.00;;;3.90;99.90;;;;;;5036863;28;20479;-87
2023/01/27 02:03:11;;;;;;;0.00;0.00;;;3.90;1.00;;;;;;5036126;28;20042;-88
2023/01/27 02:05:43;;;;;;;0.30;0.30;;;3.90;99.90;;;;;;5035883;28;20060;-87
2023/01/27 02:08:20;;;;;;;0.80;0.65;;;3.90;83.30;;;;;;5036412;28;20048;-87
2023/01/27 02:10:46;;;;;;;0.00;0.00;;;3.90;1.00;;;;;;5036382;28;20087;-87
2023/01/27 02:13:11;;;;;;;0.40;0.40;;;3.90;99.90;;;;;;5036768;28;20042;-87
2023/01/27 02:15:38;;;;;;;0.00;0.00;;;4.00;99.90;;;;;;5036718;28;20045;-87
2023/01/27 02:18:04;;;;;;;0.00;0.00;;;4.00;99.90;;;;;;5036316;28;20483;-87
2023/01/27 02:20:46;;;;;;;1.33;0.43;;;4.00;22.10;;;;;;5035100;28;20068;-87
2023/01/27 02:23:30;;;;;;;0.10;0.10;;;4.10;1.00;;;;;;5035570;28;20081;-87
2023/01/27 02:26:14;;;;;;;0.03;0.03;;;4.10;1.00;;;;;;5039292;28;20473;-87
2023/01/27 02:28:40;;;;;;;1.05;1.00;;;5.40;99.90;;;;;;5040554;28;20083;-87
2023/01/27 02:31:06;;;;;;;0.10;0.10;;;4.10;99.90;;;;;;5040693;28;20042;-87
2023/01/27 02:33:32;;;;;;;27.60;1.13;;;4.10;99.90;;;;;;5040388;28;20099;-88
2023/01/27 02:36:12;;;;;;;0.10;0.10;;;4.10;99.90;;;;;;5055791;28;20049;-87
2023/01/27 02:38:49;;;;;;;4.10;0.55;;;4.10;1.00;;;;;;5040014;28;20045;-88
2023/01/27 02:41:35;;;;;;;0.08;0.08;;;4.10;99.90;;;;;;5040423;28;20037;-87
2023/01/27 02:44:01;;;;;;;0.43;0.25;;;4.10;99.90;;;;;;5038775;28;20050;-87
2023/01/27 02:46:27;;;;;;;0.00;0.00;;;4.10;99.90;;;;;;5055222;28;20037;-87
2023/01/27 02:48:52;;;;;;;0.35;0.30;;;4.10;1.00;;;;;;5039556;28;20041;-87
2023/01/27 02:51:18;;;;;;;0.20;0.20;;;4.10;1.00;;;;;;5038691;28;20430;-87
2023/01/27 02:53:44;;;;;;;0.00;0.00;;;4.10;46.90;;;;;;5038807;28;20168;-87
2023/01/27 02:56:10;;;;;;;0.20;0.20;;;4.10;1.00;;;;;;5039106;28;20051;-87
2023/01/27 02:58:36;;;;;;;0.00;0.00;;;4.10;99.90;;;;;;5038618;28;20049;-88
2023/01/27 03:01:02;;;;;;;0.00;0.00;;;4.10;1.00;;;;;;5038603;28;20056;-87
2023/01/27 03:03:27;;;;;;;0.20;0.17;;;4.50;1.00;;;;;;5038205;28;20041;-87
2023/01/27 03:05:53;;;;;;;0.38;0.25;;;4.10;99.90;;;;;;5038791;28;20041;-87
2023/01/27 03:08:18;;;;;;;0.30;0.30;;;4.10;99.90;;;;;;5037103;28;20049;-87
2023/01/27 03:10:49;;;;;;;1.10;1.10;;;4.60;99.90;;;;;;5038969;28;20045;-86
2023/01/27 03:13:15;;;;;;;0.00;0.00;;;4.00;99.90;;;;;;5038682;28;20044;-87
2023/01/27 03:18:25;;;;;;;0.00;0.00;;;3.90;44.00;;;;;;5037815;28;20045;-87
2023/01/27 03:20:50;;;;;;;0.00;0.00;;;3.90;99.90;;;;;;5038104;28;20045;-88
2023/01/27 03:23:17;;;;;;;0.75;0.35;;;3.90;99.90;;;;;;5037926;28;20068;-88
2023/01/27 03:25:45;;;;;;;0.10;0.10;;;4.00;99.90;;;;;;5037958;28;20049;-87
2023/01/27 03:28:11;;;;;;;0.25;0.20;;;3.90;99.90;;;;;;5037290;28;20045;-87
2023/01/27 03:30:38;;;;;;;0.57;0.57;;;3.90;99.90;;;;;;5036935;28;20128;-87
2023/01/27 03:33:05;;;;;;;0.00;0.00;;;3.90;99.90;;;;;;5036669;28;20041;-87
2023/01/27 03:35:38;;;;;;;0.88;0.47;;;3.90;99.90;;;;;;5038129;28;20069;-87
2023/01/27 03:46:24;;;;;;;0.00;0.00;;;3.80;1.00;;;;;;5037608;28;20049;-87
2023/01/27 03:48:53;;;;;;;0.00;0.00;;;3.80;99.90;;;;;;5037935;28;20866;-87
2023/01/27 03:51:22;;;;;;;0.00;0.00;;;3.80;99.90;;;;;;5037521;28;20087;-87
2023/01/27 03:53:48;;;;;;;0.90;0.75;;;3.80;99.90;;;;;;5037555;28;20096;-87
2023/01/27 03:56:15;;;;;;;0.10;0.10;;;3.90;99.90;;;;;;5036504;28;20564;-87
2023/01/27 03:58:41;;;;;;;0.00;0.00;;;3.90;99.90;;;;;;5037510;28;20037;-86
2023/01/27 04:01:13;;;;;;;0.15;0.15;;;3.90;1.00;;;;;;5038335;28;20042;-87
2023/01/27 04:09:12;;;;;;;0.00;0.00;;;3.80;99.90;;;;;;5038233;28;20045;-87
2023/01/27 04:14:32;;;;;;;0.10;0.10;;;3.80;1.30;;;;;;5038325;28;20045;-87
2023/01/27 04:17:02;;;;;;;0.10;0.10;;;3.80;99.90;;;;;;5036711;28;20052;-87
2023/01/27 04:19:28;;;;;;;0.30;0.30;;;3.80;99.90;;;;;;5036770;28;20435;-87
2023/01/27 04:21:54;;;;;;;0.75;0.47;;;3.80;99.90;;;;;;5037626;28;20041;-87
2023/01/27 04:24:23;;;;;;;0.38;0.38;;;3.80;71.90;;;;;;5038126;28;20042;-87
2023/01/27 04:26:57;;;;;;;0.10;0.10;;;3.80;1.00;;;;;;5036298;28;20041;-87
2023/01/27 04:29:28;;;;;;;0.30;0.30;;;3.80;99.90;;;;;;5037828;28;20183;-87
2023/01/27 04:31:56;;;;;;;0.00;0.00;;;4.80;1.00;;;;;;5036991;28;20041;-87
2023/01/27 04:34:23;;;;;;;0.20;0.20;;;3.70;99.90;;;;;;5037506;28;20047;-87
2023/01/27 04:36:48;;;;;;;0.00;0.00;;;3.70;99.90;;;;;;5037158;28;20048;-87
2023/01/27 04:39:14;;;;;;;0.10;0.10;;;3.70;91.90;;;;;;5035593;28;20187;-87
2023/01/27 04:41:40;;;;;;;0.20;0.20;;;3.70;99.90;;;;;;5036726;28;20128;-87
2023/01/27 04:44:07;;;;;;;0.47;0.43;;;3.70;26.10;;;;;;5036751;28;20073;-87
2023/01/27 04:46:33;;;;;;;0.00;0.00;;;3.70;1.00;;;;;;5036164;28;20598;-87
2023/01/27 04:49:00;;;;;;;0.00;0.00;;;3.70;99.90;;;;;;5036816;28;20041;-87
2023/01/27 04:51:26;;;;;;;0.00;0.00;;;3.60;99.90;;;;;;5035380;28;20041;-87
2023/01/27 04:53:52;;;;;;;0.00;0.00;;;3.60;99.90;;;;;;5037005;28;20045;-87
2023/01/27 04:56:22;;;;;;;0.10;0.10;;;3.60;99.90;;;;;;5035940;28;20119;-87
2023/01/27 04:58:48;;;;;;;0.00;0.00;;;3.60;99.90;;;;;;5035221;28;20175;-87
2023/01/27 05:01:14;;;;;;;29.23;1.25;;;3.60;99.90;;;;;;5035531;28;20405;-87
2023/01/27 05:03:39;;;;;;;0.00;0.00;;;3.60;99.90;;;;;;5035483;28;20041;-87
2023/01/27 05:06:05;;;;;;;0.20;0.20;;;3.60;99.90;;;;;;5035489;28;20049;-87
2023/01/27 05:08:31;;;;;;;0.25;0.10;;;3.70;99.90;;;;;;5035296;28;20511;-87
2023/01/27 05:10:56;;;;;;;0.10;0.10;;;3.60;99.90;;;;;;5035102;28;20081;-87
2023/01/27 05:13:22;;;;;;;0.00;0.00;;;3.60;99.90;;;;;;5034520;28;20068;-87
2023/01/27 05:15:48;;;;;;;0.20;0.20;;;3.60;99.90;;;;;;5034125;28;20053;-87
2023/01/27 05:18:14;;;;;;;0.00;0.00;;;4.60;79.30;;;;;;5035593;28;20037;-87
2023/01/27 05:20:39;;;;;;;2.65;0.90;;;3.60;97.80;;;;;;5033780;28;20100;-87
2023/01/27 05:26:20;;;;;;;0.28;0.28;;;3.50;99.90;;;;;;4996903;28;20053;-87
2023/01/27 05:28:47;;;;;;;0.03;0.03;;;3.50;99.90;;;;;;4996615;28;20099;-87
2023/01/27 05:31:17;;;;;;;0.00;0.00;;;3.50;99.90;;;;;;5024851;28;20064;-87
2023/01/27 05:33:43;;;;;;;0.50;0.50;;;3.50;1.00;;;;;;5033448;28;20060;-87
2023/01/27 05:36:12;;;;;;;0.10;0.10;;;3.50;82.00;;;;;;5035476;28;20045;-87
2023/01/27 05:38:38;;;;;;;0.20;0.20;;;3.50;99.90;;;;;;5035021;28;20098;-87
2023/01/27 05:41:06;;;;;;;0.67;0.30;;;3.50;99.90;;;;;;5037052;28;20046;-87
2023/01/27 05:43:33;;;;;;;0.10;0.10;;;3.50;99.90;;;;;;5036180;28;20088;-87
2023/01/27 05:46:06;;;;;;;0.00;0.00;;;3.40;1.00;;;;;;5017941;28;20124;-87
2023/01/27 05:48:37;;;;;;;0.10;0.10;;;3.40;1.00;;;;;;5034711;28;20053;-87
2023/01/27 05:51:04;;;;;;;0.30;0.25;;;3.40;93.10;;;;;;5035290;28;20046;-86
2023/01/27 05:53:31;;;;;;;0.10;0.10;;;3.40;99.90;;;;;;5035893;28;20064;-87
2023/01/27 05:55:56;;;;;;;0.00;0.00;;;3.30;99.90;;;;;;5036778;28;20042;-87
2023/01/27 05:58:23;;;;;;;0.10;0.10;;;3.40;1.00;;;;;;5036657;28;20091;-87
2023/01/27 06:00:49;;;;;;;0.20;0.20;;;3.30;99.90;;;;;;5040486;28;20045;-87
2023/01/27 06:03:15;;;;;;;0.00;0.00;;;3.30;99.90;;;;;;5039069;28;20372;-87
2023/01/27 06:05:55;;;;;;;0.30;0.30;;;3.30;99.90;;;;;;5038570;28;20072;-87
2023/01/27 06:08:22;;;;;;;3.03;1.25;;;3.30;99.90;;;;;;5039698;28;20091;-86
2023/01/27 06:10:48;;;;;;;0.13;0.13;;;3.30;99.90;;;;;;5039088;28;20403;-87
2023/01/27 06:13:14;;;;;;;0.00;0.00;;;3.30;99.90;;;;;;5039400;28;20040;-86
2023/01/27 06:15:44;;;;;;;0.00;0.00;;;3.30;1.00;;;;;;5038173;28;20093;-86
2023/01/27 06:18:11;;;;;;;0.00;0.00;;;3.30;30.00;;;;;;5039615;28;20123;-87
2023/01/27 06:20:37;;;;;;;0.00;0.00;;;3.30;49.60;;;;;;5038865;28;20037;-87
2023/01/27 06:23:03;;;;;;;0.00;0.00;;;3.30;5.00;;;;;;5039484;28;20391;-86
2023/01/27 06:25:29;;;;;;;0.00;0.00;;;3.30;99.90;;;;;;5038795;28;20510;-86
2023/01/27 06:27:56;;;;;;;1.00;0.88;;;3.20;99.90;;;;;;5038680;28;20041;-86
2023/01/27 06:30:23;;;;;;;1.55;1.10;;;3.20;1.00;;;;;;5037415;28;20041;-86
2023/01/27 06:32:48;;;;;;;0.10;0.10;;;4.50;19.70;;;;;;5020971;28;20516;-86
2023/01/27 06:35:14;;;;;;;0.00;0.00;;;3.20;92.50;;;;;;5037574;28;20077;-87
2023/01/27 06:37:39;;;;;;;0.00;0.00;;;3.20;34.10;;;;;;5038839;28;20069;-86
2023/01/27 06:40:05;;;;;;;0.00;0.00;;;3.30;99.90;;;;;;5037588;28;20045;-87
2023/01/27 06:42:31;;;;;;;0.00;0.00;;;3.30;99.90;;;;;;5038460;28;20038;-87
2023/01/27 06:44:57;;;;;;;0.00;0.00;;;3.30;99.90;;;;;;5038454;28;20053;-87
2023/01/27 06:47:22;;;;;;;0.20;0.20;;;3.30;99.90;;;;;;5038993;28;20099;-87
2023/01/27 06:49:48;;;;;;;0.08;0.08;;;3.30;99.90;;;;;;5036530;28;20152;-86
2023/01/27 06:52:13;;;;;;;0.00;0.00;;;3.30;1.00;;;;;;5036046;28;20045;-86
2023/01/27 06:54:39;;;;;;;0.30;0.30;;;3.30;99.90;;;;;;5034740;28;20049;-86
2023/01/27 06:57:04;;;;;;;0.55;0.25;;;3.30;99.90;;;;;;5034557;28;20045;-86
2023/01/27 06:59:30;;;;;;;0.32;0.28;;;3.30;99.90;;;;;;5035460;28;20079;-87
2023/01/27 07:01:56;;;;;;;0.43;0.25;;;3.30;99.90;;;;;;5035371;28;20044;-86
2023/01/27 07:04:21;;;;;;;0.00;0.00;;;3.30;1.00;;;;;;5034375;28;20038;-86
2023/01/27 07:06:47;;;;;;;2.17;1.00;;;3.30;1.00;;;;;;5035727;28;20041;-87
2023/01/27 07:09:12;;;;;;;0.77;0.77;;;3.30;1.00;;;;;;5033922;28;20037;-86
2023/01/27 07:11:38;;;;;;;0.00;0.00;;;3.30;83.10;;;;;;5034410;28;20410;-86
2023/01/27 07:14:04;;;;;;;0.00;0.00;;;3.30;99.90;;;;;;5034703;28;20045;-87
2023/01/27 07:16:29;;;;;;;0.00;0.00;;;3.30;99.90;;;;;;5035451;28;20049;-86
2023/01/27 07:18:55;;;;;;;0.00;0.00;;;3.30;99.90;;;;;;5034127;28;20084;-86
2023/01/27 07:21:20;;;;;;;0.00;0.00;;;3.30;99.90;;;;;;5035594;28;20511;-87
2023/01/27 07:23:46;;;;;;;0.00;0.00;;;3.30;99.90;;;;;;5035062;28;20053;-86
2023/01/27 07:26:12;;;;;;;0.00;0.00;;;3.30;99.90;;;;;;5034407;28;20045;-86
2023/01/27 07:28:37;;;;;;;0.20;0.20;;;3.20;99.90;;;;;;5034687;28;20403;-87
2023/01/27 07:31:03;;;;;;;0.00;0.00;;;3.10;99.90;;;;;;5035706;28;20498;-86
2023/01/27 07:33:28;;;;;;;0.00;0.00;;;3.00;99.90;;;;;;5035333;28;20069;-86
2023/01/27 07:35:54;;;;;;;0.28;0.28;;;2.90;99.90;;;;;;5035221;28;20037;-86
2023/01/27 07:38:20;;;;;;;0.00;0.00;;;2.80;99.90;;;;;;5033751;28;20045;-86
2023/01/27 07:40:46;;;;;;;0.38;0.38;;;2.70;99.90;;;;;;5035142;28;20064;-86
2023/01/27 07:43:12;;;;;;;0.05;0.05;;;2.60;99.90;;;;;;5035265;28;20038;-86
2023/01/27 07:45:37;;;;;;;0.00;0.00;;;2.60;99.90;;;;;;5033892;28;20091;-86
2023/01/27 07:48:05;;;;;;;0.00;0.00;;;2.60;99.90;;;;;;5033460;28;20053;-87
2023/01/27 07:50:30;;;;;;;0.22;0.20;;;2.60;99.90;;;;;;5033747;28;20095;-86
2023/01/27 07:53:04;;;;;;;0.08;0.08;;;2.50;99.90;;;;;;5034716;28;20038;-86
2023/01/27 07:55:31;;;;;;;0.27;0.27;;;2.50;99.90;;;;;;5034084;28;20538;-86
2023/01/27 07:57:56;;;;;;;0.00;0.00;;;2.50;99.90;;;;;;5033331;28;20041;-86
2023/01/27 08:00:23;;;;;;;0.00;0.00;;;2.50;99.90;;;;;;5034899;28;20042;-87
2023/01/27 08:02:52;;;;;;;0.00;0.00;;;2.50;99.90;;;;;;5033562;28;20052;-87
2023/01/27 08:05:19;;;;;;;0.00;0.00;;;2.50;99.90;;;;;;5034754;28;20037;-86
2023/01/27 08:07:45;;;;;;;0.00;0.00;;;2.50;99.90;;;;;;5035095;28;20055;-86
2023/01/27 08:10:11;;;;;;;0.00;0.00;;;2.50;99.90;;;;;;5034586;28;20411;-86
2023/01/27 08:12:37;;;;;;;0.00;0.00;;;2.40;99.90;;;;;;5034703;28;20048;-86
2023/01/27 08:15:03;;;;;;;0.00;0.00;;;2.50;99.90;;;;;;5034648;28;20467;-86
2023/01/27 08:17:29;;;;;;;0.05;0.05;;;2.50;99.90;;;;;;5034538;28;20052;-86
2023/01/27 08:19:55;;;;;;;0.13;0.13;;;2.40;99.90;;;;;;5033396;28;20121;-87
2023/01/27 08:22:21;;;;;;;0.20;0.20;;;2.40;99.90;;;;;;5033422;28;20120;-87
2023/01/27 08:24:48;;;;;;;0.10;0.10;;;2.40;99.90;;;;;;5032942;28;20049;-87
2023/01/27 08:27:14;;;;;;;0.10;0.10;;;2.30;99.90;;;;;;5034376;28;20487;-86
2023/01/27 08:29:39;;;;;;;0.00;0.00;;;2.30;99.90;;;;;;5033177;28;20095;-87
2023/01/27 08:32:05;;;;;;;0.00;0.00;;;2.30;99.90;;;;;;5034054;28;20041;-87
2023/01/27 08:34:32;;;;;;;0.00;0.00;;;2.40;99.90;;;;;;5032758;28;20383;-86
2023/01/27 08:36:57;;;;;;;0.00;0.00;;;2.40;99.90;;;;;;5032720;28;20045;-86
2023/01/27 08:39:23;;;;;;;0.00;0.00;;;2.50;99.90;;;;;;5033862;28;20044;-86
2023/01/27 08:41:48;;;;;;;1.77;0.63;;;2.50;99.90;;;;;;5034121;28;20072;-86
2023/01/27 08:44:14;;;;;;;0.00;0.00;;;2.60;99.90;;;;;;5034057;28;20050;-86
2023/01/27 08:46:39;;;;;;;0.20;0.20;;;2.70;99.90;;;;;;5033707;28;20061;-86
2023/01/27 08:49:05;;;;;;;1.33;1.23;;;2.70;99.90;;;;;;5032541;28;20041;-86
2023/01/27 08:51:31;;;;;;;0.13;0.10;;;2.70;99.90;;;;;;5032468;28;20061;-86
2023/01/27 08:53:57;;;;;;;0.13;0.13;;;2.80;99.90;;;;;;5034057;28;20038;-87
2023/01/27 08:56:23;;;;;;;0.00;0.00;;;2.90;99.90;;;;;;5037374;28;20037;-86
2023/01/27 08:58:51;;;;;;;0.05;0.05;;;3.00;99.90;;;;;;5036405;28;20045;-87
2023/01/27 09:01:17;;;;;;;0.00;0.00;;;3.20;99.90;;;;;;5036845;28;20377;-87
2023/01/27 09:03:42;;;;;;;0.00;0.00;;;3.30;99.90;;;;;;5039001;28;20445;-86
2023/01/27 09:06:10;;;;;;;0.00;0.00;;;3.40;99.90;;;;;;5035421;28;20046;-87
2023/01/27 09:08:36;;;;;;;0.00;0.00;;;3.50;99.90;;;;;;5049079;28;20045;-86
2023/01/27 09:11:10;;;;;;;0.70;0.70;;;3.60;99.90;;;;;;5034026;28;20049;-86
2023/01/27 09:13:36;;;;;;;0.43;0.25;;;3.70;99.90;;;;;;5034027;28;20495;-87
2023/01/27 09:16:02;;;;;;;0.35;0.35;;;3.70;99.90;;;;;;5032320;28;20041;-86
2023/01/27 09:18:28;;;;;;;0.10;0.10;;;3.70;99.90;;;;;;5033571;28;20041;-87
2023/01/27 09:20:53;;;;;;;0.00;0.00;;;3.80;99.90;;;;;;5032315;28;20087;-86
2023/01/27 09:23:19;;;;;;;0.00;0.00;;;3.80;99.90;;;;;;5033306;28;20049;-87
2023/01/27 09:25:44;;;;;;;1.00;1.00;;;3.90;99.90;;;;;;5032233;28;20506;-87
2023/01/27 09:28:15;;;;;;;0.10;0.10;;;3.90;99.90;;;;;;5033425;28;20048;-86
2023/01/27 09:30:45;;;;;;;0.00;0.00;;;3.90;99.90;;;;;;5033025;28;20049;-86
2023/01/27 09:33:12;;;;;;;1.00;0.95;;;4.00;1.00;;;;;;5032846;28;20045;-86
2023/01/27 09:35:56;;;;;;;0.00;0.00;;;4.10;1.00;;;;;;5033839;28;20126;-87
2023/01/27 09:38:24;;;;;;;0.10;0.10;;;4.10;99.90;;;;;;5033407;28;20041;-86
2023/01/27 09:40:58;;;;;;;0.00;0.00;;;4.20;7.00;;;;;;5033169;28;20491;-86
2023/01/27 09:43:43;;;;;;;0.10;0.10;;;4.20;99.90;;;;;;5033567;28;20061;-87
2023/01/27 09:46:20;;;;;;;0.25;0.20;;;4.30;1.00;;;;;;5032996;28;20046;-86
2023/01/27 09:49:25;;;;;;;0.00;0.00;;;4.40;99.90;;;;;;5031682;28;20579;-86
2023/01/27 09:52:12;;;;;;;0.00;0.00;;;4.50;99.90;;;;;;5009608;28;20212;-86
2023/01/27 09:54:41;;;;;;;1.65;1.00;;;4.50;31.70;;;;;;5034424;28;20164;-86
2023/01/27 09:57:25;;;;;;;0.55;0.55;;;4.50;1.00;;;;;;5032802;28;20049;-86
2023/01/27 10:00:25;;;;;;;0.63;0.63;;;4.60;99.90;;;;;;5033137;28;20033;-87
2023/01/27 10:03:09;;;;;;;0.05;0.05;;;4.60;1.00;;;;;;5032647;28;20058;-86
2023/01/27 10:06:07;;;;;;;0.20;0.15;;;4.70;18.00;;;;;;5032837;28;20128;-86
2023/01/27 10:08:49;;;;;;;0.00;0.00;;;4.70;39.00;;;;;;5033108;28;20040;-87
2023/01/27 10:11:32;;;;;;;0.00;0.00;;;4.60;99.90;;;;;;5031793;28;20049;-87
2023/01/27 10:14:33;;;;;;;4.28;1.55;;;4.50;99.90;;;;;;5032644;28;20436;-87
2023/01/27 10:17:09;;;;;;;0.20;0.20;;;4.60;1.00;;;;;;5033120;28;20057;-87
2023/01/27 10:19:45;;;;;;;0.00;0.00;;;4.80;99.90;;;;;;5031632;28;20184;-86
2023/01/27 10:22:18;;;;;;;0.75;0.70;;;4.90;81.60;;;;;;5032978;28;20098;-87
2023/01/27 10:25:22;;;;;;;0.00;0.00;;;4.80;1.00;;;;;;5033108;28;20060;-87
2023/01/27 10:27:56;;;;;;;0.00;0.00;;;4.70;92.20;;;;;;5010709;28;20050;-87
2023/01/27 10:30:31;;;;;;;0.05;0.05;;;4.60;1.00;;;;;;5011040;28;20129;-87
2023/01/27 10:33:00;;;;;;;0.00;0.00;;;4.60;99.90;;;;;;5023403;28;20184;-87
2023/01/27 10:35:40;;;;;;;0.22;0.22;;;4.60;64.30;;;;;;5031309;28;20292;-86
2023/01/27 10:38:29;;;;;;;0.10;0.10;;;4.60;99.90;;;;;;5031093;28;20053;-86
2023/01/27 10:41:19;;;;;;;0.00;0.00;;;4.70;1.00;;;;;;5032396;28;20042;-86
2023/01/27 10:44:08;;;;;;;0.00;0.00;;;4.70;99.90;;;;;;5033215;28;20081;-87
2023/01/27 10:46:43;;;;;;;0.00;0.00;;;4.70;99.90;;;;;;5035807;28;20549;-87
2023/01/27 10:49:23;;;;;;;0.00;0.00;;;4.70;1.00;;;;;;5034705;28;20059;-87
2023/01/27 10:52:00;;;;;;;0.00;0.00;;;4.60;7.20;;;;;;5034702;28;20052;-87
2023/01/27 10:54:36;;;;;;;0.00;0.00;;;4.60;99.90;;;;;;5034943;28;20403;-87
2023/01/27 10:57:08;;;;;;;0.00;0.00;;;4.50;1.00;;;;;;5035655;28;20049;-87
2023/01/27 10:59:45;;;;;;;0.00;0.00;;;4.50;99.90;;;;;;5036106;28;20049;-87
2023/01/27 11:02:26;;;;;;;0.10;0.10;;;4.50;99.90;;;;;;5035873;28;20045;-87
2023/01/27 11:05:01;;;;;;;0.00;0.00;;;4.50;99.90;;;;;;5036034;28;20053;-87
2023/01/27 11:07:29;;;;;;;0.00;0.00;;;4.60;1.00;;;;;;5035893;28;20434;-87
2023/01/27 11:10:22;;;;;;;2.63;0.57;;;4.70;99.90;;;;;;5034754;28;20128;-87
2023/01/27 11:12:53;;;;;;;0.00;0.00;;;4.80;97.90;;;;;;5032823;28;20049;-87
2023/01/27 11:15:28;;;;;;;0.00;0.00;;;4.80;1.00;;;;;;5034367;28;20056;-87
2023/01/27 11:18:04;;;;;;;0.20;0.20;;;4.90;99.90;;;;;;5034745;28;20077;-87
2023/01/27 11:20:40;;;;;;;0.00;0.00;;;4.80;99.90;;;;;;5036959;28;20490;-87
2023/01/27 11:23:09;;;;;;;0.00;0.00;;;4.80;99.90;;;;;;5034044;28;20050;-87
2023/01/27 11:25:59;;;;;;;0.00;0.00;;;4.90;1.00;;;;;;5035707;28;20092;-87
2023/01/27 11:28:36;;;;;;;0.10;0.10;;;4.80;99.90;;;;;;5035198;28;20052;-87
2023/01/27 11:31:07;;;;;;;0.00;0.00;;;4.70;99.90;;;;;;5034066;28;20060;-87
2023/01/27 11:33:56;;;;;;;0.32;0.25;;;4.70;99.90;;;;;;5035014;28;20061;-87
2023/01/27 11:36:23;;;;;;;0.00;0.00;;;4.70;54.20;;;;;;5035197;28;20045;-87
2023/01/27 11:38:48;;;;;;;0.00;0.00;;;4.60;72.60;;;;;;5035035;28;20045;-87
2023/01/27 11:41:14;;;;;;;0.30;0.30;;;4.60;99.90;;;;;;5035276;28;20095;-87
2023/01/27 11:43:39;;;;;;;0.17;0.17;;;4.60;99.90;;;;;;5033895;28;20064;-87
2023/01/27 11:46:12;;;;;;;0.00;0.00;;;4.50;99.90;;;;;;5034921;28;20056;-86
2023/01/27 11:48:42;;;;;;;0.00;0.00;;;4.50;99.90;;;;;;5034832;28;20053;-87
2023/01/27 11:51:20;;;;;;;0.00;0.00;;;4.60;99.90;;;;;;5034972;28;20136;-87
2023/01/27 11:53:51;;;;;;;0.40;0.38;;;4.60;99.90;;;;;;5033565;28;20051;-87
2023/01/27 11:56:18;;;;;;;0.30;0.25;;;4.50;49.50;;;;;;5033487;28;20084;-87
2023/01/27 11:59:00;;;;;;;0.05;0.05;;;4.50;99.90;;;;;;5033340;28;20121;-87
2023/01/27 12:01:56;;;;;;;0.05;0.05;;;4.40;99.90;;;;;;5034583;28;20569;-86
2023/01/27 12:04:37;;;;;;;0.00;0.00;;;4.50;99.90;;;;;;5033386;28;20076;-87
2023/01/27 12:07:14;;;;;;;0.15;0.15;;;4.40;99.90;;;;;;5034494;28;20099;-87
2023/01/27 12:09:41;;;;;;;0.00;0.00;;;4.40;99.90;;;;;;5034609;28;20045;-87
2023/01/27 12:12:12;;;;;;;0.00;0.00;;;4.40;1.00;;;;;;5034320;28;20510;-87
2023/01/27 12:14:38;;;;;;;0.00;0.00;;;4.40;1.00;;;;;;5033149;28;20050;-87
2023/01/27 12:17:05;;;;;;;0.00;0.00;;;4.40;99.90;;;;;;5034176;28;20041;-87
2023/01/27 12:19:41;;;;;;;1.90;0.22;;;4.40;99.90;;;;;;5034534;28;20495;-87
2023/01/27 12:22:25;;;;;;;0.00;0.00;;;4.40;12.30;;;;;;5034140;28;20568;-87
2023/01/27 12:25:12;;;;;;;2.72;1.55;;;4.40;99.90;;;;;;5034331;28;20091;-86
2023/01/27 12:27:45;;;;;;;0.00;0.00;;;4.30;1.00;;;;;;5033209;28;20053;-87
2023/01/27 12:30:23;;;;;;;0.00;0.00;;;4.30;99.90;;;;;;5034559;28;20049;-87
2023/01/27 12:32:50;;;;;;;0.00;0.00;;;4.30;99.90;;;;;;5033950;28;20054;-87
2023/01/27 12:35:28;;;;;;;0.00;0.00;;;4.30;99.90;;;;;;5034175;28;20041;-87
2023/01/27 12:38:23;;;;;;;0.10;0.10;;;4.30;52.00;;;;;;5034073;28;20053;-87
2023/01/27 12:41:19;;;;;;;0.55;0.30;;;4.30;99.90;;;;;;5031944;28;20507;-87
2023/01/27 12:43:55;;;;;;;0.00;0.00;;;4.20;99.90;;;;;;5033838;28;20049;-87
2023/01/27 12:46:28;;;;;;;0.00;0.00;;;4.30;1.00;;;;;;5032619;28;20565;-87
2023/01/27 12:49:13;;;;;;;0.00;0.00;;;4.30;1.00;;;;;;5033635;28;20041;-86
2023/01/27 12:51:44;;;;;;;0.00;0.00;;;4.20;91.70;;;;;;5033471;28;20164;-86
2023/01/27 12:54:21;;;;;;;0.00;0.00;;;4.20;1.00;;;;;;5033635;28;20041;-86
2023/01/27 12:56:53;;;;;;;0.00;0.00;;;4.20;1.00;;;;;;5033685;28;20073;-86
2023/01/27 12:59:21;;;;;;;0.00;0.00;;;4.30;99.90;;;;;;5033585;28;20052;-86
2023/01/27 13:02:01;;;;;;;0.00;0.00;;;4.30;1.00;;;;;;5033356;28;20052;-86
2023/01/27 13:04:27;;;;;;;0.15;0.15;;;4.20;99.90;;;;;;5033428;28;20087;-86
2023/01/27 13:07:05;;;;;;;0.00;0.00;;;4.20;99.90;;;;;;5033243;28;20042;-86
2023/01/27 13:09:54;;;;;;;0.00;0.00;;;4.20;99.90;;;;;;5033437;28;20045;-86
2023/01/27 13:12:22;;;;;;;0.00;0.00;;;4.20;99.90;;;;;;5032249;28;20506;-87
2023/01/27 13:14:51;;;;;;;0.35;0.35;;;4.20;99.90;;;;;;5033553;28;20064;-86
2023/01/27 13:17:48;;;;;;;0.10;0.10;;;4.10;1.00;;;;;;5033216;28;20368;-87
2023/01/27 13:20:27;;;;;;;0.00;0.00;;;4.10;1.00;;;;;;5033254;28;20052;-87
2023/01/27 13:22:58;;;;;;;0.00;0.00;;;4.10;9.30;;;;;;5032268;28;20487;-87
2023/01/27 13:25:36;;;;;;;0.00;0.00;;;4.10;1.00;;;;;;5033222;28;20176;-87
2023/01/27 13:28:06;;;;;;;0.00;0.00;;;4.10;1.00;;;;;;5032235;28;20072;-87
2023/01/27 13:30:39;;;;;;;0.28;0.10;;;4.10;1.00;;;;;;5033203;28;20041;-87
2023/01/27 13:33:49;;;;;;;0.00;0.00;;;4.10;1.00;;;;;;5033095;28;20552;-87
2023/01/27 13:36:32;;;;;;;0.10;0.10;;;4.10;1.00;;;;;;5024481;28;20045;-86
2023/01/27 13:39:17;;;;;;;0.20;0.20;;;4.10;99.90;;;;;;5033303;28;20425;-86
2023/01/27 13:41:53;;;;;;;0.10;0.10;;;4.10;1.00;;;;;;5032245;28;20121;-87
2023/01/27 13:44:42;;;;;;;0.15;0.15;;;4.10;1.00;;;;;;5033227;28;20095;-86
2023/01/27 13:47:23;;;;;;;0.00;0.00;;;4.10;99.90;;;;;;5033190;28;20061;-87
2023/01/27 13:50:07;;;;;;;0.17;0.17;;;4.10;1.00;;;;;;5031559;28;20129;-88
2023/01/27 13:52:32;;;;;;;0.10;0.10;;;4.10;1.00;;;;;;5031504;28;20553;-87